Terminal Aerodrome Forecast
Issued by NWS Shreveport, LA

Home | Current Version | Previous Version | Text Only | Print | Product List | Glossary On
Versions: 1 2 3 4 5 6 7 8 9 10 11 12 13 14 15
000
FTUS44 KSHV 221140
TAFELD
TAF
KELD 221140Z 2212/2312 16003KT P6SM SKC
     FM221600 VRB05KT P6SM SCT035 SCT250
     FM221900 19005KT P6SM SCT050 SCT250
     FM230000 18003KT P6SM SCT250=

USA.gov is the U.S. government's official web portal to all federal, state and local government web resources and services.